Time;durP1;ratioP1;P1;durP2;ratioP2;P2;SDS_P1;SDS_P2;PMS_P1;PMS_P2;Temp;Humidity;BMP_temperature;BMP_pressure;BME280_temperature;BME280_humidity;BME280_pressure;Samples;Min_cycle;Max_cycle;Signal;HPM_P1;HPM_P2
2022/05/01 00:01:21;;;;;;;3.50;1.23;;;10.70;69.50;;;;;;4997104;28;20461;-81
2022/05/01 00:03:49;;;;;;;2.55;1.13;;;10.70;69.50;;;;;;4981367;28;20486;-81
2022/05/01 00:06:16;;;;;;;2.35;1.05;;;10.70;69.60;;;;;;4981702;28;20037;-81
2022/05/01 00:08:43;;;;;;;3.33;1.20;;;10.70;69.60;;;;;;4997367;28;20137;-80
2022/05/01 00:11:12;;;;;;;2.88;1.20;;;10.70;69.60;;;;;;4997206;28;20068;-81
2022/05/01 00:13:43;;;;;;;2.38;1.15;;;10.70;69.60;;;;;;4994661;28;20069;-81
2022/05/01 00:16:11;;;;;;;2.78;1.23;;;10.70;69.70;;;;;;5002263;28;20458;-81
2022/05/01 00:18:40;;;;;;;3.08;1.48;;;10.70;69.80;;;;;;4997145;28;20050;-81
2022/05/01 00:21:09;;;;;;;2.72;1.25;;;10.70;69.80;;;;;;4994617;28;20090;-81
2022/05/01 00:23:37;;;;;;;3.38;1.25;;;10.70;69.90;;;;;;4997497;28;20042;-81
2022/05/01 00:26:06;;;;;;;2.45;1.17;;;10.70;69.90;;;;;;5013475;28;20050;-80
2022/05/01 00:28:36;;;;;;;2.42;1.20;;;10.70;70.00;;;;;;4984475;28;20050;-81
2022/05/01 00:31:05;;;;;;;2.20;1.05;;;10.70;70.00;;;;;;4990695;28;20182;-81
2022/05/01 00:36:26;;;;;;;2.53;1.05;;;10.60;70.10;;;;;;5014558;28;20056;-81
2022/05/01 00:38:57;;;;;;;3.50;1.27;;;10.70;70.10;;;;;;5012788;28;20050;-81
2022/05/01 00:41:27;;;;;;;2.80;1.27;;;10.60;70.10;;;;;;4996059;28;20050;-81
2022/05/01 00:44:01;;;;;;;2.22;0.98;;;10.60;70.20;;;;;;4993073;28;20141;-81
2022/05/01 00:46:28;;;;;;;3.13;1.42;;;10.60;70.30;;;;;;4999980;28;20069;-81
2022/05/01 00:48:55;;;;;;;2.72;1.40;;;10.60;70.40;;;;;;4996935;28;20050;-84
2022/05/01 00:51:22;;;;;;;3.95;1.15;;;10.60;71.10;;;;;;4981276;28;20042;-84
2022/05/01 00:53:50;;;;;;;3.42;1.58;;;10.60;70.50;;;;;;4985613;28;20038;-81
2022/05/01 00:56:18;;;;;;;2.35;1.08;;;10.50;70.60;;;;;;4999937;28;20050;-81
2022/05/01 00:58:46;;;;;;;2.85;1.70;;;10.50;70.60;;;;;;4996604;28;20093;-82
2022/05/01 01:01:14;;;;;;;2.10;1.00;;;10.50;70.70;;;;;;5012874;28;20111;-81
2022/05/01 01:03:45;;;;;;;2.47;1.40;;;10.50;70.70;;;;;;5007076;28;20422;-82
2022/05/01 01:06:12;;;;;;;3.10;1.42;;;10.50;70.70;;;;;;5012456;28;20124;-82
2022/05/01 01:08:39;;;;;;;2.80;1.45;;;10.50;70.80;;;;;;4992871;28;20082;-81
2022/05/01 01:11:06;;;;;;;2.83;1.10;;;10.50;70.80;;;;;;4989740;28;20047;-81
2022/05/01 01:13:34;;;;;;;3.03;1.38;;;10.50;70.90;;;;;;4995571;28;20516;-81
2022/05/01 01:16:07;;;;;;;2.83;1.50;;;10.50;70.90;;;;;;4980137;28;20053;-81
2022/05/01 01:18:34;;;;;;;2.13;1.08;;;10.50;71.00;;;;;;5012597;28;20129;-81
2022/05/01 01:21:01;;;;;;;2.25;1.30;;;10.50;71.10;;;;;;4996152;28;20077;-81
2022/05/01 01:23:29;;;;;;;4.07;1.58;;;10.50;71.10;;;;;;4996671;28;20061;-84
2022/05/01 01:25:56;;;;;;;3.78;1.15;;;10.50;71.10;;;;;;4995396;28;20061;-84
2022/05/01 01:28:25;;;;;;;2.75;1.17;;;10.50;71.10;;;;;;4996506;28;20049;-84
2022/05/01 01:33:38;;;;;;;2.88;1.48;;;10.50;71.30;;;;;;5012897;28;20129;-84
2022/05/01 01:36:06;;;;;;;3.00;1.50;;;10.50;71.30;;;;;;5008789;28;20050;-84
2022/05/01 01:38:33;;;;;;;4.18;1.77;;;10.40;71.30;;;;;;4980478;28;20049;-84
2022/05/01 01:41:07;;;;;;;3.08;1.40;;;10.50;71.40;;;;;;4992451;28;20521;-84
2022/05/01 01:43:36;;;;;;;4.32;1.80;;;10.40;71.40;;;;;;4996442;28;20414;-84
2022/05/01 01:46:03;;;;;;;3.35;1.50;;;10.40;71.40;;;;;;5012282;28;20033;-84
2022/05/01 01:48:30;;;;;;;4.25;2.08;;;10.40;71.50;;;;;;4996179;28;20046;-84
2022/05/01 01:51:02;;;;;;;2.72;1.27;;;10.40;71.50;;;;;;4980116;28;20057;-84
2022/05/01 01:53:35;;;;;;;4.70;2.08;;;10.40;71.60;;;;;;5012491;28;20144;-84
2022/05/01 01:56:04;;;;;;;3.00;1.20;;;10.40;71.70;;;;;;4996305;28;20049;-84
2022/05/01 01:58:31;;;;;;;3.22;1.38;;;10.40;71.70;;;;;;4996314;28;20046;-84
2022/05/01 02:00:59;;;;;;;3.45;1.50;;;10.40;71.70;;;;;;5029199;28;20046;-84
2022/05/01 02:03:27;;;;;;;2.63;1.35;;;10.40;71.80;;;;;;4996408;28;20092;-84
2022/05/01 02:05:54;;;;;;;3.17;1.73;;;10.30;71.80;;;;;;4979793;28;20553;-83
2022/05/01 02:08:22;;;;;;;3.20;2.13;;;10.30;71.80;;;;;;4996125;28;20048;-84
2022/05/01 02:10:49;;;;;;;3.25;1.70;;;10.30;71.80;;;;;;4978534;28;20046;-84
2022/05/01 02:13:16;;;;;;;4.65;2.08;;;10.30;71.90;;;;;;4981612;28;20054;-84
2022/05/01 02:15:44;;;;;;;3.95;2.13;;;10.30;72.00;;;;;;5013923;28;20490;-84
2022/05/01 02:18:11;;;;;;;3.03;1.67;;;10.30;72.10;;;;;;4980212;28;20375;-84
2022/05/01 02:24:07;;;;;;;;;;;10.20;72.20;;;;;;5013399;28;20133;-92
2022/05/01 02:26:35;;;;;;;3.23;1.33;;;10.10;72.20;;;;;;4998645;28;19921;-92
2022/05/01 02:29:22;;;;;;;3.38;1.70;;;10.10;72.20;;;;;;5011946;28;20048;-92
2022/05/01 02:32:03;;;;;;;2.67;1.27;;;10.20;72.30;;;;;;4998434;28;20045;-92
2022/05/01 02:34:45;;;;;;;3.80;1.58;;;10.20;72.40;;;;;;4983082;28;20038;-91
2022/05/01 02:37:23;;;;;;;3.08;1.33;;;10.10;72.30;;;;;;4995238;28;20046;-92
2022/05/01 02:40:08;;;;;;;2.88;1.50;;;10.20;72.30;;;;;;5009269;28;20093;-91
2022/05/01 02:42:40;;;;;;;3.45;1.40;;;10.20;72.40;;;;;;4983382;28;20054;-92
2022/05/01 02:45:13;;;;;;;2.80;1.42;;;10.10;72.40;;;;;;5000042;28;20046;-91
2022/05/01 02:47:56;;;;;;;3.13;1.50;;;10.10;72.50;;;;;;5014206;28;20045;-92
2022/05/01 02:50:43;;;;;;;4.60;1.70;;;10.10;72.60;;;;;;4999340;28;20124;-92
2022/05/01 02:53:31;;;;;;;2.45;1.42;;;10.10;72.70;;;;;;4999068;28;20467;-92
2022/05/01 02:56:07;;;;;;;3.35;1.63;;;10.10;72.80;;;;;;5000761;28;20034;-92
2022/05/01 02:58:46;;;;;;;3.05;1.65;;;10.10;72.80;;;;;;5012759;28;20070;-92
2022/05/01 03:01:16;;;;;;;5.18;1.55;;;10.10;72.80;;;;;;5011115;28;20042;-91
2022/05/01 03:03:50;;;;;;;3.20;1.60;;;10.10;72.90;;;;;;4997359;28;20045;-91
2022/05/01 03:09:32;;;;;;;3.97;2.20;;;10.00;72.90;;;;;;5011407;28;20045;-88
2022/05/01 03:12:03;;;;;;;3.67;1.77;;;10.00;72.90;;;;;;4993377;28;20046;-89
2022/05/01 03:14:56;;;;;;;2.90;1.70;;;10.00;73.00;;;;;;4991054;28;20046;-88
2022/05/01 03:17:24;;;;;;;3.00;1.50;;;10.00;73.10;;;;;;5017598;28;20463;-88
2022/05/01 03:23:01;;;;;;;3.17;1.52;;;9.90;73.10;;;;;;5003598;28;20052;-88
2022/05/01 03:25:33;;;;;;;4.38;1.58;;;9.90;73.20;;;;;;4971451;28;20046;-88
2022/05/01 03:28:21;;;;;;;3.33;1.60;;;9.90;73.30;;;;;;4999542;28;20046;-88
2022/05/01 03:30:56;;;;;;;4.18;2.20;;;9.90;73.40;;;;;;5000763;28;20514;-88
2022/05/01 03:33:25;;;;;;;3.25;1.73;;;9.80;73.50;;;;;;5000550;28;20125;-88
2022/05/01 03:35:55;;;;;;;4.15;1.73;;;9.80;73.60;;;;;;5000266;28;20080;-89
2022/05/01 03:38:42;;;;;;;3.17;1.67;;;9.80;73.70;;;;;;5014372;28;20589;-88
2022/05/01 03:41:30;;;;;;;2.97;1.52;;;9.80;73.70;;;;;;4999856;28;20058;-88
2022/05/01 03:44:16;;;;;;;4.85;1.40;;;9.80;73.80;;;;;;5001267;28;20085;-88
2022/05/01 03:46:56;;;;;;;;;;;9.70;73.80;;;;;;4996799;28;20049;-89
2022/05/01 03:49:59;;;;;;;2.03;0.90;;;9.70;73.80;;;;;;5022932;28;19929;-88
2022/05/01 03:52:38;;;;;;;2.85;1.10;;;9.70;73.80;;;;;;5015461;28;20046;-88
2022/05/01 03:55:18;;;;;;;3.28;1.38;;;9.70;73.80;;;;;;5000442;28;20037;-88
2022/05/01 03:58:11;;;;;;;2.75;1.30;;;9.70;73.80;;;;;;5016030;28;20048;-88
2022/05/01 04:00:46;;;;;;;3.28;1.60;;;9.70;73.90;;;;;;5013193;28;20521;-87
2022/05/01 04:03:18;;;;;;;2.10;1.13;;;9.70;74.00;;;;;;4999844;28;20100;-89
2022/05/01 04:06:09;;;;;;;3.58;1.50;;;9.70;74.10;;;;;;5016235;28;20045;-89
2022/05/01 04:09:05;;;;;;;;;;;;;;;;;;;;;
2022/05/01 04:11:47;;;;;;;2.88;1.33;;;9.70;74.20;;;;;;5016107;28;20037;-90
2022/05/01 04:14:35;;;;;;;2.92;1.40;;;9.70;74.10;;;;;;4991691;28;20100;-89
2022/05/01 04:17:12;;;;;;;2.45;1.20;;;9.70;74.20;;;;;;5018521;28;20046;-89
2022/05/01 04:19:59;;;;;;;4.07;1.70;;;9.70;74.20;;;;;;5012811;28;20157;-90
2022/05/01 04:22:39;;;;;;;2.30;1.20;;;9.70;74.30;;;;;;5000456;28;20134;-90
2022/05/01 04:25:38;;;;;;;3.83;2.05;;;9.70;74.30;;;;;;5000439;28;20136;-89
2022/05/01 04:28:09;;;;;;;3.88;1.52;;;9.70;74.30;;;;;;4982444;28;20046;-90
2022/05/01 04:30:46;;;;;;;2.50;1.50;;;9.60;74.30;;;;;;4999370;28;20053;-89
2022/05/01 04:33:52;;;;;;;;;;;;;;;;;;;;;
2022/05/01 04:36:33;;;;;;;3.00;1.40;;;9.60;74.40;;;;;;5001049;28;20049;-89
2022/05/01 04:39:25;;;;;;;4.38;2.05;;;9.60;74.40;;;;;;5015364;28;20466;-90
2022/05/01 04:41:56;;;;;;;3.88;1.88;;;9.60;74.40;;;;;;4998851;28;20042;-89
2022/05/01 04:44:33;;;;;;;3.78;1.92;;;9.60;74.40;;;;;;4999728;28;20052;-89
2022/05/01 04:47:35;;;;;;;3.63;1.55;;;9.60;74.40;;;;;;4979483;28;20145;-90
2022/05/01 04:50:21;;;;;;;3.88;1.90;;;9.60;74.50;;;;;;4999134;28;20060;-90
2022/05/01 04:52:49;;;;;;;3.80;2.00;;;9.60;74.40;;;;;;5014569;28;20046;-89
2022/05/01 04:55:24;;;;;;;2.92;1.60;;;9.60;74.40;;;;;;4995340;28;20042;-90
2022/05/01 04:58:24;;;;;;;3.97;2.65;;;9.70;74.50;;;;;;4981142;28;20494;-90
2022/05/01 05:01:13;;;;;;;3.83;2.20;;;9.70;74.60;;;;;;5005425;28;20046;-89
2022/05/01 05:03:59;;;;;;;3.42;1.73;;;9.60;74.60;;;;;;4987214;28;20046;-89
2022/05/01 05:06:42;;;;;;;4.25;2.05;;;9.60;74.60;;;;;;5000215;28;20038;-89
2022/05/01 05:12:39;;;;;;;2.95;1.45;;;9.60;74.70;;;;;;5014519;28;20057;-90
2022/05/01 05:15:43;;;;;;;4.03;1.80;;;9.60;74.70;;;;;;5000857;28;20049;-89
2022/05/01 05:18:58;;;;;;;3.35;1.88;;;9.60;74.70;;;;;;4981902;28;20042;-90
2022/05/01 05:21:44;;;;;;;5.32;2.10;;;9.60;74.70;;;;;;4999199;28;20046;-90
2022/05/01 05:24:52;;;;;;;4.25;2.08;;;9.70;74.70;;;;;;5016292;28;20050;-90
2022/05/01 05:28:32;;;;;;;;;;;;;;;;;;;;;
2022/05/01 05:31:21;;;;;;;4.22;2.33;;;9.80;74.50;;;;;;4997053;28;20191;-90
2022/05/01 05:34:59;;;;;;;3.55;1.85;;;9.90;74.60;;;;;;4996539;28;20057;-91
2022/05/01 05:37:58;;;;;;;2.55;1.40;;;9.90;74.40;;;;;;5012011;28;20130;-90
2022/05/01 05:41:12;;;;;;;4.03;1.80;;;9.90;74.40;;;;;;4996885;28;20046;-90
2022/05/01 05:44:52;;;;;;;3.65;1.80;;;10.00;74.40;;;;;;4987576;28;20050;-90
2022/05/01 05:47:36;;;;;;;4.07;1.98;;;10.00;74.40;;;;;;5013981;28;20045;-89
2022/05/01 05:50:19;;;;;;;3.55;1.75;;;10.00;74.30;;;;;;4998975;28;20141;-89
2022/05/01 05:52:51;;;;;;;4.68;1.92;;;10.10;74.30;;;;;;4993834;28;20266;-89
2022/05/01 05:55:23;;;;;;;3.78;1.80;;;10.10;74.20;;;;;;4978597;28;20081;-89
2022/05/01 05:57:57;;;;;;;3.67;1.77;;;10.20;74.30;;;;;;5005744;28;20054;-89
2022/05/01 06:01:39;;;;;;;4.63;2.05;;;10.20;74.20;;;;;;5013678;28;20042;-89
2022/05/01 06:04:12;;;;;;;2.53;1.08;;;10.30;74.00;;;;;;5000698;28;20050;-90
2022/05/01 06:06:56;;;;;;;3.28;1.60;;;10.40;74.00;;;;;;4999489;28;20052;-85
2022/05/01 06:09:40;;;;;;;2.75;1.40;;;10.50;73.80;;;;;;4981274;28;20164;-89
2022/05/01 06:12:11;;;;;;;3.17;1.30;;;10.60;73.70;;;;;;5009463;28;20046;-90
2022/05/01 06:14:39;;;;;;;4.03;1.27;;;10.70;73.60;;;;;;4986493;28;20089;-83
2022/05/01 06:17:08;;;;;;;2.75;1.20;;;10.80;73.50;;;;;;4996139;28;20057;-83
2022/05/01 06:19:39;;;;;;;2.75;1.50;;;10.90;73.40;;;;;;5011065;28;20061;-87
2022/05/01 06:22:22;;;;;;;4.18;1.70;;;10.90;73.30;;;;;;5000186;28;20045;-89
2022/05/01 06:25:10;;;;;;;3.92;1.60;;;10.90;73.20;;;;;;4986067;28;20089;-89
2022/05/01 06:27:38;;;;;;;4.25;1.85;;;11.00;73.10;;;;;;5016071;28;20046;-85
2022/05/01 06:30:06;;;;;;;3.20;1.67;;;11.10;73.10;;;;;;5012223;28;20158;-84
2022/05/01 06:32:34;;;;;;;2.67;1.58;;;11.20;73.00;;;;;;5008237;28;20048;-82
2022/05/01 06:35:02;;;;;;;3.47;1.90;;;11.30;72.90;;;;;;5021088;28;20042;-82
2022/05/01 06:37:34;;;;;;;3.42;1.58;;;11.30;72.80;;;;;;5006615;28;20107;-84
2022/05/01 06:40:05;;;;;;;2.90;1.70;;;11.40;72.70;;;;;;5032338;28;20053;-83
2022/05/01 06:42:36;;;;;;;4.30;2.10;;;11.50;72.60;;;;;;5024860;28;20090;-83
2022/05/01 06:45:08;;;;;;;4.53;2.75;;;11.60;72.50;;;;;;5031034;28;20050;-85
2022/05/01 06:47:38;;;;;;;;;;;11.70;72.40;;;;;;4999749;28;20512;-84
2022/05/01 06:50:08;;;;;;;2.50;1.20;;;11.70;72.30;;;;;;4999311;28;20448;-84
2022/05/01 06:52:42;;;;;;;2.90;1.27;;;11.70;72.30;;;;;;5014256;28;20041;-85
2022/05/01 06:55:26;;;;;;;4.60;1.85;;;11.80;72.10;;;;;;5016795;28;20116;-84
2022/05/01 06:57:54;;;;;;;2.47;1.55;;;11.90;72.00;;;;;;4996567;28;20069;-84
2022/05/01 07:00:25;;;;;;;4.47;1.98;;;12.00;71.80;;;;;;4996268;28;20050;-84
2022/05/01 07:03:11;;;;;;;2.95;1.50;;;12.10;71.70;;;;;;5000154;28;20056;-84
2022/05/01 07:05:42;;;;;;;4.00;1.88;;;12.20;71.60;;;;;;4998615;28;20111;-83
2022/05/01 07:08:09;;;;;;;3.60;1.95;;;12.20;71.40;;;;;;5014138;28;20449;-83
2022/05/01 07:10:37;;;;;;;4.20;2.40;;;12.40;72.00;;;;;;5014716;28;20034;-84
2022/05/01 07:13:04;;;;;;;3.45;1.95;;;12.40;71.10;;;;;;4998462;28;20562;-84
2022/05/01 07:15:37;;;;;;;3.75;2.13;;;12.50;71.00;;;;;;4999663;28;20049;-89
2022/05/01 07:18:08;;;;;;;3.97;1.83;;;12.60;70.90;;;;;;4984629;28;20454;-87
2022/05/01 07:20:46;;;;;;;4.93;2.60;;;12.50;70.90;;;;;;4998690;28;20060;-83
2022/05/01 07:23:21;;;;;;;3.42;2.03;;;12.50;70.90;;;;;;4998025;28;20122;-86
2022/05/01 07:26:05;;;;;;;4.40;2.60;;;12.50;70.90;;;;;;5002023;28;20137;-87
2022/05/01 07:28:52;;;;;;;4.75;2.88;;;12.50;70.80;;;;;;4998756;28;20494;-86
2022/05/01 07:32:12;;;;;;;5.00;2.15;;;12.50;70.70;;;;;;5014802;28;20385;-86
2022/05/01 07:38:23;;;;;;;;;;;;;;;;;;;;;
2022/05/01 07:40:51;;;;;;;3.40;1.73;;;12.60;70.40;;;;;;5013636;28;20136;-82
2022/05/01 07:43:21;;;;;;;3.90;2.28;;;12.70;70.20;;;;;;4997786;28;20057;-83
2022/05/01 07:50:27;;;;;;;4.00;2.10;;;13.00;69.70;;;;;;5033895;28;20060;-91
2022/05/01 07:52:55;;;;;;;4.70;2.67;;;13.10;69.60;;;;;;5006603;28;20068;-92
2022/05/01 07:55:28;;;;;;;5.97;2.65;;;13.20;69.60;;;;;;4999252;28;20109;-90
2022/05/01 07:58:04;;;;;;;5.07;2.22;;;13.30;69.40;;;;;;4984425;28;20050;-91
2022/05/01 08:00:59;;;;;;;;;;;;;;;;;;;;;
2022/05/01 08:07:16;;;;;;;4.05;1.92;;;13.30;68.90;;;;;;5005745;28;20104;-85
2022/05/01 08:09:54;;;;;;;3.95;2.42;;;13.30;69.00;;;;;;5018219;28;20502;-85
2022/05/01 08:12:33;;;;;;;4.47;2.17;;;13.30;68.90;;;;;;4990526;28;20049;-85
2022/05/01 08:15:01;;;;;;;4.50;2.60;;;13.40;68.80;;;;;;5002806;28;20041;-89
2022/05/01 08:17:28;;;;;;;4.00;2.47;;;13.40;68.50;;;;;;5003223;28;20049;-85
2022/05/01 08:22:48;;;;;;;5.53;2.90;;;13.50;68.30;;;;;;5028229;28;20054;-85
2022/05/01 08:25:17;;;;;;;4.03;2.38;;;13.60;68.30;;;;;;4998459;28;20050;-85
2022/05/01 08:28:10;;;;;;;4.40;2.60;;;13.70;68.10;;;;;;5013227;28;20034;-85
2022/05/01 08:33:55;;;;;;;5.78;2.90;;;13.80;67.60;;;;;;5016741;28;20344;-85
2022/05/01 08:36:24;;;;;;;4.90;2.78;;;14.00;67.40;;;;;;5010198;28;20038;-84
2022/05/01 08:38:52;;;;;;;4.38;2.63;;;14.20;67.20;;;;;;5013760;28;20088;-84
2022/05/01 08:41:42;;;;;;;4.45;2.92;;;14.30;66.90;;;;;;5014092;28;20053;-85
2022/05/01 08:44:14;;;;;;;6.90;3.03;;;14.40;66.60;;;;;;4982875;28;20046;-84
2022/05/01 08:47:02;;;;;;;5.53;2.70;;;14.50;66.60;;;;;;5013957;28;20635;-84
2022/05/01 08:49:32;;;;;;;6.03;3.33;;;14.60;66.30;;;;;;4994061;28;20050;-84
2022/05/01 08:52:09;;;;;;;4.38;2.92;;;14.70;66.00;;;;;;5013877;28;20088;-84
2022/05/01 08:55:03;;;;;;;4.30;2.72;;;14.70;65.90;;;;;;5015410;28;20042;-91
2022/05/01 08:57:33;;;;;;;4.60;2.60;;;14.70;65.80;;;;;;4995378;28;20050;-91
2022/05/01 09:04:17;;;;;;;4.78;2.15;;;14.70;65.60;;;;;;5030826;28;20088;-93
2022/05/01 09:07:27;;;;;;;5.45;2.70;;;14.50;65.70;;;;;;5000307;28;20034;-94
2022/05/01 09:10:21;;;;;;;4.45;2.40;;;14.50;65.60;;;;;;4986476;28;20057;-86
2022/05/01 09:12:53;;;;;;;4.68;2.83;;;14.50;65.50;;;;;;5013685;28;20042;-87
2022/05/01 09:15:40;;;;;;;4.25;2.60;;;14.60;65.40;;;;;;4984369;28;20117;-87
2022/05/01 09:18:12;;;;;;;6.25;2.60;;;14.70;65.10;;;;;;5015525;28;20057;-87
2022/05/01 09:21:08;;;;;;;5.20;2.60;;;14.60;64.90;;;;;;5009793;28;20475;-87
2022/05/01 09:23:43;;;;;;;5.07;2.70;;;14.60;64.70;;;;;;5013751;28;20140;-87
2022/05/01 09:26:29;;;;;;;5.65;2.75;;;14.60;64.80;;;;;;5030526;28;20069;-88
2022/05/01 09:29:23;;;;;;;5.45;3.38;;;14.50;64.60;;;;;;4983745;28;20053;-86
2022/05/01 09:32:03;;;;;;;6.10;2.63;;;14.50;64.60;;;;;;5001138;28;20494;-86
2022/05/01 09:34:37;;;;;;;6.45;3.15;;;14.40;64.70;;;;;;5018230;28;20129;-86
2022/05/01 09:37:18;;;;;;;4.93;2.65;;;14.40;64.70;;;;;;4997539;28;20041;-91
2022/05/01 09:39:52;;;;;;;6.20;3.25;;;14.50;64.70;;;;;;4997157;28;20056;-87
2022/05/01 09:42:29;;;;;;;6.25;2.67;;;14.50;64.70;;;;;;5011058;28;20042;-88
2022/05/01 09:45:12;;;;;;;4.47;2.63;;;14.50;64.70;;;;;;4996874;28;20061;-88
2022/05/01 09:47:43;;;;;;;5.88;2.83;;;14.60;64.50;;;;;;5012594;28;20066;-87
2022/05/01 09:50:12;;;;;;;4.30;2.58;;;14.60;64.50;;;;;;5006685;28;20046;-87
2022/05/01 09:52:57;;;;;;;3.42;2.08;;;14.60;64.40;;;;;;4997784;28;20077;-87
2022/05/01 09:55:26;;;;;;;5.00;2.53;;;14.70;64.00;;;;;;4989848;28;20074;-87
2022/05/01 09:58:11;;;;;;;3.88;2.00;;;14.70;63.90;;;;;;5036362;28;20058;-88
2022/05/01 10:00:45;;;;;;;4.95;3.00;;;14.80;63.60;;;;;;5020750;28;20057;-88
2022/05/01 10:03:33;;;;;;;4.97;2.90;;;14.90;63.60;;;;;;5036044;28;20050;-87
2022/05/01 10:06:02;;;;;;;4.88;3.17;;;14.90;63.20;;;;;;5013209;28;20052;-87
2022/05/01 10:08:29;;;;;;;4.03;2.30;;;14.80;63.20;;;;;;5013464;28;20100;-88
2022/05/01 10:10:59;;;;;;;7.18;2.42;;;14.80;62.90;;;;;;4996905;28;20073;-88
2022/05/01 10:13:31;;;;;;;3.60;2.15;;;14.80;62.60;;;;;;4996554;28;20129;-88
2022/05/01 10:16:07;;;;;;;6.50;2.25;;;14.80;62.50;;;;;;4985217;28;20038;-88
2022/05/01 10:18:45;;;;;;;4.05;2.00;;;14.80;62.30;;;;;;5023163;28;20045;-88
2022/05/01 10:21:36;;;;;;;4.18;2.58;;;14.90;62.10;;;;;;5006789;28;20074;-87
2022/05/01 10:24:10;;;;;;;3.47;2.03;;;14.90;61.90;;;;;;4996271;28;20054;-88
2022/05/01 10:26:46;;;;;;;6.95;2.55;;;15.00;61.80;;;;;;4993220;28;20100;-91
2022/05/01 10:32:20;;;;;;;5.78;2.40;;;15.00;61.50;;;;;;4993072;28;20054;-91
2022/05/01 10:32:58;;;;;;;3.97;2.05;;;15.00;61.40;;;;;;5008062;28;20152;-91
2022/05/01 10:35:59;;;;;;;4.22;2.20;;;15.00;61.30;;;;;;4996908;28;20049;-91
2022/05/01 10:38:41;;;;;;;3.85;2.13;;;15.10;61.10;;;;;;4996342;28;20058;-91
2022/05/01 10:41:16;;;;;;;3.17;1.75;;;15.20;60.90;;;;;;4993286;28;20049;-91
2022/05/01 10:43:55;;;;;;;4.55;2.25;;;15.30;60.60;;;;;;4996914;28;20057;-91
2022/05/01 10:46:28;;;;;;;5.15;2.13;;;15.40;60.40;;;;;;5013728;28;20049;-90
2022/05/01 10:49:00;;;;;;;4.18;2.17;;;15.50;60.10;;;;;;4997106;28;20045;-91
2022/05/01 10:51:31;;;;;;;2.90;1.70;;;15.60;59.90;;;;;;5015368;28;20119;-91
2022/05/01 10:54:17;;;;;;;4.75;2.30;;;15.70;59.90;;;;;;4996935;28;20042;-91
2022/05/01 10:56:50;;;;;;;3.28;1.85;;;15.90;59.20;;;;;;5015587;28;20061;-91
2022/05/01 10:59:42;;;;;;;3.92;2.08;;;15.90;59.00;;;;;;5013488;28;20046;-90
2022/05/01 11:02:31;;;;;;;5.35;2.67;;;16.00;58.30;;;;;;5013595;28;20050;-91
2022/05/01 11:05:03;;;;;;;4.15;2.35;;;15.90;57.70;;;;;;4996467;28;20053;-92
2022/05/01 11:07:35;;;;;;;5.03;2.20;;;15.90;57.80;;;;;;4996533;28;20046;-92
2022/05/01 11:10:12;;;;;;;3.00;1.80;;;15.90;57.50;;;;;;4997891;28;20046;-88
2022/05/01 11:12:46;;;;;;;3.65;2.10;;;15.90;57.50;;;;;;4996346;28;20050;-90
2022/05/01 11:15:29;;;;;;;5.75;2.10;;;16.00;57.30;;;;;;4982710;28;20062;-90
2022/05/01 11:17:56;;;;;;;4.03;1.90;;;16.10;57.20;;;;;;4996964;28;20046;-90
2022/05/01 11:20:29;;;;;;;6.68;2.20;;;16.00;57.20;;;;;;4998495;28;20042;-90
2022/05/01 11:23:25;;;;;;;3.90;2.03;;;16.10;57.20;;;;;;4999613;28;20037;-89
2022/05/01 11:26:05;;;;;;;4.43;2.30;;;16.10;56.80;;;;;;5015303;28;20041;-89
2022/05/01 11:28:56;;;;;;;4.05;1.90;;;16.00;56.60;;;;;;4988023;28;20042;-92
2022/05/01 11:32:05;;;;;;;4.25;1.90;;;16.00;56.60;;;;;;5003327;28;20128;-89
2022/05/01 11:34:36;;;;;;;3.47;1.98;;;16.00;55.80;;;;;;5009949;28;20056;-91
2022/05/01 11:37:07;;;;;;;3.30;2.03;;;15.90;56.00;;;;;;4992390;28;20121;-91
2022/05/01 11:40:15;;;;;;;4.25;2.30;;;15.90;55.70;;;;;;5001639;28;20054;-90
2022/05/01 11:42:42;;;;;;;3.53;2.05;;;16.00;55.40;;;;;;4989908;28;20053;-90
2022/05/01 11:45:19;;;;;;;4.68;2.10;;;16.00;55.60;;;;;;5014566;28;20061;-91
2022/05/01 11:47:58;;;;;;;4.10;2.42;;;16.20;55.40;;;;;;5008870;28;20049;-90
2022/05/01 11:50:40;;;;;;;5.00;2.03;;;16.20;54.90;;;;;;5003851;28;20046;-90
2022/05/01 11:53:25;;;;;;;4.05;2.13;;;16.30;55.00;;;;;;4987749;28;20053;-90
2022/05/01 12:02:43;;;;;;;3.65;1.83;;;17.10;54.10;;;;;;4949240;28;20043;-90
2022/05/01 12:05:11;;;;;;;4.40;2.03;;;17.50;53.80;;;;;;4975202;28;20066;-90
2022/05/01 12:07:56;;;;;;;3.88;1.63;;;17.70;53.30;;;;;;4959891;28;20055;-90
2022/05/01 12:10:24;;;;;;;2.90;1.90;;;17.90;53.00;;;;;;4959973;28;20137;-88
2022/05/01 12:12:51;;;;;;;3.90;1.85;;;17.80;52.90;;;;;;4993814;28;20049;-89
2022/05/01 12:15:24;;;;;;;3.08;1.90;;;17.90;52.90;;;;;;5004997;28;20128;-85
2022/05/01 12:17:59;;;;;;;4.40;2.50;;;18.10;52.40;;;;;;5019267;28;20100;-90
2022/05/01 12:20:34;;;;;;;4.45;2.30;;;18.20;52.10;;;;;;5002312;28;20041;-90
2022/05/01 12:23:20;;;;;;;4.05;2.25;;;18.30;51.90;;;;;;5001176;28;20043;-86
2022/05/01 12:25:50;;;;;;;3.58;1.83;;;18.60;51.60;;;;;;5014836;28;20037;-85
2022/05/01 12:28:20;;;;;;;3.80;2.38;;;18.70;51.40;;;;;;4989283;28;20041;-90
2022/05/01 12:30:57;;;;;;;4.03;2.08;;;18.50;51.10;;;;;;5017496;28;20390;-85
2022/05/01 12:33:29;;;;;;;4.13;2.30;;;18.50;51.30;;;;;;5009300;28;20077;-86
2022/05/01 12:35:59;;;;;;;4.18;2.00;;;18.80;50.80;;;;;;5011050;28;20140;-87
2022/05/01 12:38:35;;;;;;;4.63;2.50;;;19.10;50.50;;;;;;5001800;28;20045;-91
2022/05/01 12:44:41;;;;;;;4.28;2.47;;;19.70;48.60;;;;;;4955471;28;20051;-85
2022/05/01 12:47:08;;;;;;;3.83;1.95;;;20.10;47.60;;;;;;4960997;28;20066;-87
2022/05/01 12:49:36;;;;;;;4.57;2.33;;;20.10;47.70;;;;;;4979714;28;20049;-88
2022/05/01 12:52:04;;;;;;;6.15;3.35;;;19.90;46.90;;;;;;5001704;28;20482;-88
2022/05/01 12:54:31;;;;;;;4.40;2.58;;;19.40;47.30;;;;;;5017814;28;20073;-88
2022/05/01 12:57:01;;;;;;;4.55;2.58;;;19.10;48.10;;;;;;5001190;28;20044;-88
2022/05/01 12:59:33;;;;;;;3.47;2.20;;;18.90;48.50;;;;;;5001679;28;20045;-88
2022/05/01 13:02:31;;;;;;;3.88;2.20;;;18.60;48.80;;;;;;5003341;28;20438;-87
2022/05/01 13:05:17;;;;;;;4.72;2.15;;;18.40;49.20;;;;;;4987657;28;20053;-84
2022/05/01 13:07:45;;;;;;;3.17;1.98;;;18.10;49.60;;;;;;5001234;28;20136;-86
2022/05/01 13:10:20;;;;;;;3.88;2.30;;;18.00;49.80;;;;;;4984351;28;20038;-91
2022/05/01 13:13:05;;;;;;;3.05;1.90;;;17.90;49.90;;;;;;4998085;28;20099;-89
2022/05/01 13:15:38;;;;;;;4.20;1.98;;;17.70;49.80;;;;;;5012693;28;20155;-85
2022/05/01 13:18:05;;;;;;;3.40;1.67;;;17.70;50.00;;;;;;5016368;28;20095;-85
2022/05/01 13:20:37;;;;;;;4.43;2.38;;;17.60;50.20;;;;;;4988175;28;20049;-87
2022/05/01 13:23:13;;;;;;;3.53;2.05;;;17.60;50.30;;;;;;4991148;28;20068;-89
2022/05/01 13:25:45;;;;;;;5.10;2.50;;;17.50;50.30;;;;;;4986575;28;20045;-88
2022/05/01 13:28:13;;;;;;;5.82;2.15;;;17.50;50.50;;;;;;4998245;28;20095;-85
2022/05/01 13:30:40;;;;;;;3.90;2.42;;;17.40;50.10;;;;;;5010328;28;20038;-81
2022/05/01 13:33:08;;;;;;;3.58;2.05;;;17.30;50.30;;;;;;5000275;28;20052;-88
2022/05/01 13:35:35;;;;;;;3.95;2.45;;;17.30;50.20;;;;;;5000253;28;20145;-89
2022/05/01 13:45:07;;;;;;;3.00;1.67;;;18.40;48.80;;;;;;5013259;28;20053;-91
2022/05/01 13:47:49;;;;;;;3.67;1.65;;;18.60;48.60;;;;;;4991604;28;20090;-90
2022/05/01 13:50:30;;;;;;;4.07;2.30;;;18.70;48.50;;;;;;4994641;28;20074;-89
2022/05/01 13:53:04;;;;;;;4.13;2.10;;;18.70;48.40;;;;;;5000044;28;20041;-93
2022/05/01 13:55:34;;;;;;;3.83;1.90;;;18.80;48.30;;;;;;5012844;28;20072;-90
2022/05/01 13:58:04;;;;;;;3.90;1.85;;;18.70;48.30;;;;;;5012621;28;20044;-89
2022/05/01 14:00:48;;;;;;;2.20;1.15;;;18.70;48.50;;;;;;5015565;28;20052;-89
2022/05/01 14:03:29;;;;;;;3.78;2.08;;;18.50;48.50;;;;;;5003899;28;20034;-83
2022/05/01 14:05:56;;;;;;;3.35;1.63;;;18.40;48.70;;;;;;5031650;28;20043;-83
2022/05/01 14:08:23;;;;;;;4.43;2.05;;;18.40;49.20;;;;;;4998623;28;20445;-88
2022/05/01 14:11:20;;;;;;;3.35;1.50;;;18.50;48.60;;;;;;5015545;28;20096;-92
2022/05/01 14:13:48;;;;;;;3.13;1.60;;;18.40;48.40;;;;;;4989315;28;20553;-86
2022/05/01 14:16:17;;;;;;;2.97;1.70;;;18.30;48.60;;;;;;5016204;28;20053;-88
2022/05/01 14:18:49;;;;;;;2.83;1.40;;;18.20;48.70;;;;;;4999866;28;20042;-86
2022/05/01 14:21:18;;;;;;;3.78;1.88;;;18.10;48.80;;;;;;4998182;28;20061;-84
2022/05/01 14:23:50;;;;;;;3.35;1.50;;;17.90;48.80;;;;;;5000595;28;20520;-89
2022/05/01 14:26:17;;;;;;;3.08;1.70;;;17.70;48.90;;;;;;4999317;28;20426;-88
2022/05/01 14:28:45;;;;;;;3.20;1.70;;;17.50;49.10;;;;;;4995863;28;20049;-88
2022/05/01 14:31:12;;;;;;;3.28;2.05;;;17.40;49.20;;;;;;4994750;28;20042;-87
2022/05/01 14:33:56;;;;;;;3.42;2.05;;;17.20;49.20;;;;;;5012349;28;20562;-83
2022/05/01 14:36:28;;;;;;;3.47;2.00;;;17.10;49.20;;;;;;5013739;28;20049;-81
2022/05/01 14:39:07;;;;;;;4.07;2.20;;;16.90;49.70;;;;;;5003915;28;20044;-82
2022/05/01 14:41:44;;;;;;;3.10;1.73;;;16.70;49.30;;;;;;5012870;28;20131;-83
2022/05/01 14:44:13;;;;;;;3.25;1.58;;;16.60;49.50;;;;;;5023135;28;20046;-88
2022/05/01 14:46:52;;;;;;;2.88;1.67;;;16.50;49.60;;;;;;4982097;28;20041;-79